Time;durP1;ratioP1;P1;durP2;ratioP2;P2;SDS_P1;SDS_P2;PMS_P1;PMS_P2;Temp;Humidity;BMP_temperature;BMP_pressure;BME280_temperature;BME280_humidity;BME280_pressure;Samples;Min_cycle;Max_cycle;Signal;HPM_P1;HPM_P2
2023/03/22 00:00:42;;;;;;;14.23;8.25;;;11.70;55.10;;;;;;5030697;28;20386;-72
2023/03/22 00:03:09;;;;;;;12.25;7.28;;;11.70;55.20;;;;;;5046004;28;20752;-72
2023/03/22 00:05:35;;;;;;;10.65;7.20;;;11.70;54.80;;;;;;5031009;28;20399;-73
2023/03/22 00:08:04;;;;;;;16.20;9.25;;;11.70;55.20;;;;;;5031863;28;20626;-73
2023/03/22 00:10:30;;;;;;;13.40;7.67;;;11.80;54.70;;;;;;5031979;28;20387;-72
2023/03/22 00:12:56;;;;;;;15.25;8.18;;;11.70;55.20;;;;;;5031827;28;20481;-72
2023/03/22 00:15:21;;;;;;;13.32;8.73;;;11.60;56.10;;;;;;5033988;28;20555;-73
2023/03/22 00:17:49;;;;;;;11.07;7.63;;;11.70;55.40;;;;;;5034456;28;20398;-72
2023/03/22 00:20:16;;;;;;;11.10;7.93;;;11.60;55.70;;;;;;5034082;28;20481;-73
2023/03/22 00:22:42;;;;;;;14.60;8.65;;;11.50;57.10;;;;;;5063480;23;20917;-72
2023/03/22 00:25:08;;;;;;;13.50;8.98;;;11.50;57.60;;;;;;5054616;28;20382;-73
2023/03/22 00:27:34;;;;;;;10.88;7.80;;;11.50;56.20;;;;;;5053595;28;20388;-72
2023/03/22 00:29:59;;;;;;;12.23;8.07;;;11.60;56.60;;;;;;5054692;28;20754;-73
2023/03/22 00:32:25;;;;;;;15.07;8.60;;;11.40;57.50;;;;;;5054455;28;20889;-72
2023/03/22 00:34:51;;;;;;;20.83;9.63;;;11.40;57.50;;;;;;5055327;28;20377;-74
2023/03/22 00:37:16;;;;;;;17.70;10.10;;;11.40;58.90;;;;;;5055140;28;20413;-73
2023/03/22 00:39:42;;;;;;;15.77;9.13;;;11.40;58.70;;;;;;5061686;28;20385;-73
2023/03/22 00:42:08;;;;;;;15.00;9.50;;;11.40;58.40;;;;;;5067533;28;20404;-73
2023/03/22 00:44:34;;;;;;;14.53;9.23;;;11.20;60.50;;;;;;5057269;28;20460;-73
2023/03/22 00:46:59;;;;;;;17.20;8.77;;;11.10;62.10;;;;;;5066691;28;20378;-73
2023/03/22 00:49:26;;;;;;;15.17;9.00;;;11.00;62.60;;;;;;5069273;28;20412;-71
2023/03/22 00:51:51;;;;;;;17.55;10.18;;;11.00;63.20;;;;;;5053452;28;20443;-73
2023/03/22 00:54:17;;;;;;;17.13;9.50;;;11.00;64.60;;;;;;5053674;28;20382;-74
2023/03/22 00:56:45;;;;;;;15.85;9.40;;;10.90;64.70;;;;;;5053387;28;20711;-73
2023/03/22 00:59:12;;;;;;;17.15;10.32;;;10.80;65.50;;;;;;5053593;28;20435;-73
2023/03/22 01:01:38;;;;;;;16.50;10.20;;;10.80;67.20;;;;;;5053083;28;20577;-73
2023/03/22 01:04:04;;;;;;;16.15;10.63;;;10.80;67.40;;;;;;5053255;28;20389;-73
2023/03/22 01:06:30;;;;;;;16.90;9.15;;;10.80;67.80;;;;;;5053118;28;20393;-73
2023/03/22 01:08:56;;;;;;;18.45;10.80;;;10.90;66.80;;;;;;5052996;28;20401;-73
2023/03/22 01:11:23;;;;;;;21.27;11.02;;;10.80;68.00;;;;;;5052813;28;20451;-73
2023/03/22 01:13:48;;;;;;;17.00;10.50;;;11.00;66.80;;;;;;5053075;28;20390;-74
2023/03/22 01:16:14;;;;;;;24.23;11.27;;;11.10;65.80;;;;;;5053208;28;20386;-72
2023/03/22 01:18:40;;;;;;;16.15;9.90;;;11.10;66.80;;;;;;5053003;28;20464;-73
2023/03/22 01:21:07;;;;;;;16.27;10.88;;;11.10;65.50;;;;;;5052740;28;20488;-73
2023/03/22 01:23:33;;;;;;;20.75;11.57;;;11.20;65.10;;;;;;5053059;28;20862;-73
2023/03/22 01:26:00;;;;;;;18.02;10.35;;;11.10;65.60;;;;;;5052416;28;20381;-73
2023/03/22 01:28:25;;;;;;;17.15;10.60;;;10.80;67.50;;;;;;5052677;28;20401;-72
2023/03/22 01:30:51;;;;;;;16.42;11.20;;;10.70;69.30;;;;;;5052532;28;20464;-73
2023/03/22 01:33:17;;;;;;;20.85;11.40;;;10.70;70.00;;;;;;5052610;28;20750;-73
2023/03/22 01:35:42;;;;;;;22.87;11.67;;;10.60;70.30;;;;;;5052913;28;20393;-73
2023/03/22 01:38:08;;;;;;;18.30;11.10;;;10.50;71.80;;;;;;5052644;28;20862;-73
2023/03/22 01:40:34;;;;;;;17.10;12.00;;;10.30;75.60;;;;;;5052596;28;20385;-73
2023/03/22 01:42:59;;;;;;;19.90;12.50;;;10.20;76.30;;;;;;5052194;28;20874;-73
2023/03/22 01:45:39;;;;;;;21.40;11.77;;;10.20;76.50;;;;;;5052305;28;20443;-73
2023/03/22 01:48:36;;;;;;;22.38;13.05;;;10.10;78.70;;;;;;5052181;28;20378;-73
2023/03/22 01:51:09;;;;;;;26.55;12.63;;;10.00;80.60;;;;;;5043835;28;20392;-73
2023/03/22 01:53:50;;;;;;;20.02;12.40;;;9.90;81.80;;;;;;5052446;28;20648;-73
2023/03/22 01:56:19;;;;;;;20.90;13.60;;;10.00;81.30;;;;;;5052503;28;20384;-72
2023/03/22 01:58:46;;;;;;;19.88;13.48;;;9.90;82.30;;;;;;5052242;28;20447;-73
2023/03/22 02:01:11;;;;;;;20.65;13.32;;;9.90;82.40;;;;;;5052026;28;20447;-73
2023/03/22 02:03:53;;;;;;;21.15;14.05;;;10.00;81.90;;;;;;5055792;28;20389;-73
2023/03/22 02:06:20;;;;;;;25.40;13.95;;;9.90;82.80;;;;;;5064837;28;20378;-72
2023/03/22 02:08:45;;;;;;;22.73;14.00;;;9.90;84.50;;;;;;5063293;28;20409;-73
2023/03/22 02:11:15;;;;;;;23.90;13.05;;;9.80;84.40;;;;;;5061103;28;20392;-73
2023/03/22 02:14:08;;;;;;;23.27;14.10;;;9.80;85.80;;;;;;5053609;28;20461;-73
2023/03/22 02:16:49;;;;;;;23.25;13.85;;;9.80;86.30;;;;;;5052447;28;20858;-73
2023/03/22 02:19:28;;;;;;;24.38;15.15;;;9.80;86.50;;;;;;5052745;28;20804;-73
2023/03/22 02:21:59;;;;;;;22.90;13.32;;;9.80;86.90;;;;;;5051585;28;20397;-73
2023/03/22 02:24:54;;;;;;;23.02;13.38;;;9.90;85.80;;;;;;5052010;28;20483;-73
2023/03/22 02:27:31;;;;;;;23.02;13.35;;;9.90;85.90;;;;;;5050766;28;20385;-73
2023/03/22 02:30:12;;;;;;;21.88;13.77;;;9.90;85.70;;;;;;5051363;28;20419;-73
2023/03/22 02:33:09;;;;;;;25.63;14.15;;;9.90;85.80;;;;;;5051260;28;20423;-73
2023/03/22 02:35:45;;;;;;;22.10;14.20;;;9.90;86.10;;;;;;5051586;28;20447;-73
2023/03/22 02:38:20;;;;;;;27.17;13.38;;;9.80;85.90;;;;;;5051348;28;20385;-73
2023/03/22 02:40:49;;;;;;;22.85;13.82;;;9.80;86.70;;;;;;5051608;28;20369;-73
2023/03/22 02:43:37;;;;;;;23.80;14.50;;;9.70;88.10;;;;;;5051296;28;20812;-73
2023/03/22 02:46:11;;;;;;;22.55;14.23;;;9.60;90.30;;;;;;5051245;28;20387;-73
2023/03/22 02:49:15;;;;;;;21.73;14.65;;;9.50;91.00;;;;;;5051175;28;20869;-72
2023/03/22 02:51:46;;;;;;;27.30;14.40;;;9.50;92.10;;;;;;5051285;28;20480;-72
2023/03/22 02:54:22;;;;;;;24.02;14.30;;;9.60;90.70;;;;;;5049884;28;20758;-72
2023/03/22 02:57:11;;;;;;;23.30;14.52;;;9.50;91.80;;;;;;5051635;28;20410;-73
2023/03/22 02:59:40;;;;;;;27.10;14.85;;;9.50;91.60;;;;;;5050959;28;20385;-73
2023/03/22 03:02:10;;;;;;;23.30;15.13;;;9.50;92.50;;;;;;5050608;28;20385;-73
2023/03/22 03:04:45;;;;;;;27.90;15.77;;;9.40;92.90;;;;;;5050881;28;20389;-73
2023/03/22 03:07:13;;;;;;;24.00;14.95;;;9.40;94.80;;;;;;5050957;28;20770;-73
2023/03/22 03:09:40;;;;;;;22.00;14.40;;;9.30;95.60;;;;;;5051219;28;20450;-73
2023/03/22 03:12:17;;;;;;;28.08;15.10;;;9.40;95.80;;;;;;5051308;28;20389;-73
2023/03/22 03:14:43;;;;;;;23.38;14.75;;;9.30;96.70;;;;;;5051300;28;20373;-73
2023/03/22 03:17:30;;;;;;;23.95;15.20;;;9.20;97.40;;;;;;5051541;28;20377;-73
2023/03/22 03:20:21;;;;;;;24.58;15.50;;;9.30;98.20;;;;;;5051899;28;20382;-72
2023/03/22 03:23:01;;;;;;;25.85;16.50;;;9.30;98.10;;;;;;5051342;28;20962;-72
2023/03/22 03:25:42;;;;;;;24.92;15.23;;;9.20;98.80;;;;;;5051387;28;20482;-72
2023/03/22 03:28:36;;;;;;;25.15;15.95;;;9.20;99.50;;;;;;5051737;28;20742;-72
2023/03/22 03:31:08;;;;;;;23.95;15.75;;;9.10;99.90;;;;;;5052173;28;20377;-72
2023/03/22 03:33:39;;;;;;;26.52;15.68;;;9.10;99.90;;;;;;5051879;28;20431;-72
2023/03/22 03:36:09;;;;;;;24.40;15.30;;;9.10;99.90;;;;;;5065047;28;20472;-72
2023/03/22 03:38:39;;;;;;;25.40;15.30;;;9.10;99.90;;;;;;5057164;28;20387;-72
2023/03/22 03:41:13;;;;;;;21.90;15.30;;;9.10;99.90;;;;;;5060249;28;20461;-72
2023/03/22 03:43:40;;;;;;;27.45;15.23;;;9.10;99.90;;;;;;5063452;28;20377;-72
2023/03/22 03:46:07;;;;;;;22.90;15.40;;;9.20;99.90;;;;;;5051850;28;20559;-72
2023/03/22 03:48:35;;;;;;;24.00;15.40;;;9.20;99.90;;;;;;5052997;28;20397;-72
2023/03/22 03:51:02;;;;;;;26.10;15.32;;;9.20;99.90;;;;;;5054807;28;20498;-72
2023/03/22 03:53:28;;;;;;;22.35;15.07;;;9.10;99.90;;;;;;5054867;28;20407;-72
2023/03/22 03:55:54;;;;;;;21.70;14.40;;;9.20;99.90;;;;;;5056075;28;20457;-72
2023/03/22 03:58:19;;;;;;;22.70;14.73;;;9.20;99.90;;;;;;5055157;28;20452;-72
2023/03/22 04:00:45;;;;;;;25.13;14.90;;;9.30;99.90;;;;;;5054848;28;20750;-71
2023/03/22 04:03:12;;;;;;;24.42;14.32;;;9.40;99.90;;;;;;5053285;28;20381;-71
2023/03/22 04:05:38;;;;;;;25.55;13.65;;;9.40;99.90;;;;;;5054702;28;20377;-71
2023/03/22 04:08:04;;;;;;;20.73;14.00;;;9.30;98.80;;;;;;5054939;28;20377;-72
2023/03/22 04:10:30;;;;;;;22.83;13.18;;;9.40;99.90;;;;;;5054636;28;20457;-72
2023/03/22 04:12:55;;;;;;;21.13;13.52;;;9.40;98.90;;;;;;5054194;28;20822;-72
2023/03/22 04:15:21;;;;;;;21.45;13.90;;;9.30;99.90;;;;;;5054143;28;20465;-73
2023/03/22 04:17:47;;;;;;;20.50;12.40;;;9.30;99.90;;;;;;5054261;28;20385;-73
2023/03/22 04:20:13;;;;;;;21.38;14.20;;;9.40;98.70;;;;;;5054314;28;20446;-73
2023/03/22 04:22:40;;;;;;;20.45;13.35;;;9.50;98.40;;;;;;5052302;28;20409;-73
2023/03/22 04:25:10;;;;;;;21.67;13.98;;;9.50;97.20;;;;;;5054216;28;20393;-73
2023/03/22 04:27:38;;;;;;;23.65;14.32;;;9.40;97.30;;;;;;5054065;28;20381;-72
2023/03/22 04:30:05;;;;;;;20.23;13.93;;;9.30;99.10;;;;;;5052593;28;20401;-73
2023/03/22 04:32:31;;;;;;;23.65;14.20;;;9.30;99.30;;;;;;5052413;28;20389;-73
2023/03/22 04:34:57;;;;;;;26.65;13.50;;;9.30;99.90;;;;;;5054284;28;20727;-73
2023/03/22 04:37:30;;;;;;;18.80;13.00;;;9.30;98.70;;;;;;5055789;28;20416;-73
2023/03/22 04:39:56;;;;;;;19.70;12.70;;;9.40;98.60;;;;;;5058771;28;20460;-73
2023/03/22 04:42:22;;;;;;;19.33;12.13;;;9.50;95.80;;;;;;5070902;28;20389;-73
2023/03/22 04:44:47;;;;;;;18.75;12.30;;;9.50;94.90;;;;;;5057444;28;20399;-73
2023/03/22 04:47:13;;;;;;;25.08;13.23;;;9.50;95.30;;;;;;5054331;28;20757;-73
2023/03/22 04:49:39;;;;;;;20.02;12.45;;;9.50;94.50;;;;;;5054063;28;20497;-73
2023/03/22 04:52:05;;;;;;;25.67;12.43;;;9.50;94.60;;;;;;5053903;28;20424;-73
2023/03/22 04:54:30;;;;;;;20.90;11.10;;;9.50;94.70;;;;;;5053115;28;20382;-71
2023/03/22 04:56:56;;;;;;;17.87;11.23;;;9.50;95.20;;;;;;5053108;28;20393;-72
2023/03/22 04:59:21;;;;;;;19.30;11.37;;;9.50;94.70;;;;;;5053343;28;20435;-72
2023/03/22 05:01:48;;;;;;;19.93;11.10;;;9.60;92.60;;;;;;5060393;28;20463;-72
2023/03/22 05:04:14;;;;;;;17.92;10.38;;;9.70;91.70;;;;;;5052744;28;20421;-72
2023/03/22 05:06:40;;;;;;;16.90;9.82;;;9.80;89.70;;;;;;5043740;28;20393;-73
2023/03/22 05:09:06;;;;;;;17.23;10.63;;;9.90;87.60;;;;;;5056434;28;20404;-72
2023/03/22 05:11:31;;;;;;;19.52;11.23;;;10.00;87.70;;;;;;5056305;28;20433;-73
2023/03/22 05:13:57;;;;;;;18.52;10.60;;;10.00;87.40;;;;;;5052903;28;20389;-73
2023/03/22 05:16:23;;;;;;;17.52;9.68;;;9.90;86.20;;;;;;5051873;28;20405;-74
2023/03/22 05:18:53;;;;;;;15.77;10.73;;;10.00;86.00;;;;;;5052957;28;20393;-74
2023/03/22 05:21:27;;;;;;;15.88;10.45;;;10.00;85.30;;;;;;5052455;28;20409;-75
2023/03/22 05:23:56;;;;;;;21.23;10.60;;;10.10;85.10;;;;;;5053261;28;20385;-75
2023/03/22 05:26:25;;;;;;;18.65;10.07;;;10.30;81.80;;;;;;5054377;28;20902;-74
2023/03/22 05:28:54;;;;;;;20.33;10.20;;;10.20;81.40;;;;;;5053169;28;20462;-74
2023/03/22 05:31:20;;;;;;;20.75;10.45;;;10.20;82.20;;;;;;5052211;28;20447;-75
2023/03/22 05:33:49;;;;;;;16.98;10.25;;;10.40;81.50;;;;;;5053015;28;20389;-75
2023/03/22 05:36:16;;;;;;;15.38;9.57;;;10.60;77.70;;;;;;5052474;28;20736;-75
2023/03/22 05:38:43;;;;;;;16.50;9.68;;;10.60;76.40;;;;;;5053028;28;20382;-75
2023/03/22 05:41:09;;;;;;;14.32;9.70;;;10.70;75.40;;;;;;5052739;28;20389;-75
2023/03/22 05:43:35;;;;;;;16.50;8.65;;;10.70;74.60;;;;;;5053417;28;20385;-75
2023/03/22 05:46:05;;;;;;;21.27;10.00;;;10.70;75.30;;;;;;5053483;28;20475;-75
2023/03/22 05:48:30;;;;;;;16.67;9.07;;;10.70;76.00;;;;;;5052679;28;20409;-74
2023/03/22 05:50:56;;;;;;;15.83;9.03;;;10.70;75.50;;;;;;5052470;28;20400;-74
2023/03/22 05:53:21;;;;;;;16.70;10.30;;;10.90;74.80;;;;;;5052667;28;20378;-74
2023/03/22 05:55:47;;;;;;;23.10;9.50;;;10.90;73.40;;;;;;5053091;28;20392;-75
2023/03/22 05:58:17;;;;;;;22.77;9.32;;;11.10;71.70;;;;;;5052468;28;20382;-75
2023/03/22 06:00:44;;;;;;;17.15;8.90;;;11.20;71.00;;;;;;5052748;28;20377;-74
2023/03/22 06:03:09;;;;;;;17.45;8.90;;;11.20;69.40;;;;;;5052469;28;20858;-73
2023/03/22 06:05:37;;;;;;;18.97;8.97;;;11.20;69.50;;;;;;5052467;28;20439;-75
2023/03/22 06:08:03;;;;;;;17.45;9.10;;;11.30;68.90;;;;;;5052972;28;20388;-73
2023/03/22 06:10:29;;;;;;;17.55;8.90;;;11.30;68.50;;;;;;5052578;28;20428;-75
2023/03/22 06:12:54;;;;;;;15.95;9.02;;;11.30;68.90;;;;;;5052746;28;20569;-74
2023/03/22 06:15:20;;;;;;;17.20;9.10;;;11.30;67.90;;;;;;5053037;28;20384;-74
2023/03/22 06:17:46;;;;;;;20.08;9.40;;;11.40;68.60;;;;;;5052082;28;20428;-74
2023/03/22 06:20:13;;;;;;;12.70;8.25;;;11.50;65.80;;;;;;5053819;28;20735;-73
2023/03/22 06:22:39;;;;;;;18.17;9.43;;;11.60;64.60;;;;;;5073989;23;20520;-73
2023/03/22 06:25:06;;;;;;;18.03;8.50;;;11.50;66.20;;;;;;5051826;28;20471;-73
2023/03/22 06:27:32;;;;;;;20.27;9.70;;;11.50;66.50;;;;;;5051074;28;20370;-73
2023/03/22 06:29:57;;;;;;;18.42;9.68;;;11.60;65.60;;;;;;5051478;28;20556;-72
2023/03/22 06:32:25;;;;;;;15.30;9.50;;;11.50;66.40;;;;;;5051166;28;20518;-72
2023/03/22 06:34:54;;;;;;;18.55;9.85;;;11.60;65.60;;;;;;5051485;28;20399;-71
2023/03/22 06:37:20;;;;;;;22.70;10.98;;;11.60;66.70;;;;;;5051429;28;20390;-73
2023/03/22 06:39:46;;;;;;;19.25;10.02;;;11.60;66.00;;;;;;5051277;28;20818;-72
2023/03/22 06:42:11;;;;;;;16.65;9.70;;;11.70;64.60;;;;;;5051183;28;20417;-74
2023/03/22 06:44:38;;;;;;;19.50;9.60;;;11.80;63.80;;;;;;5049864;28;20872;-72
2023/03/22 06:47:03;;;;;;;27.20;10.05;;;11.80;63.80;;;;;;5050618;28;20413;-73
2023/03/22 06:49:30;;;;;;;17.02;8.63;;;11.90;61.40;;;;;;5051003;28;20401;-73
2023/03/22 06:51:55;;;;;;;21.38;9.32;;;12.00;59.00;;;;;;5051201;28;20382;-73
2023/03/22 06:54:21;;;;;;;20.23;9.40;;;11.90;61.40;;;;;;5051561;28;20382;-73
2023/03/22 06:56:47;;;;;;;17.40;9.27;;;12.20;59.20;;;;;;5051141;28;20874;-73
2023/03/22 06:59:12;;;;;;;18.20;8.05;;;12.20;59.20;;;;;;5050787;28;20381;-76
2023/03/22 07:01:38;;;;;;;15.43;7.90;;;12.30;58.10;;;;;;5050583;28;20389;-73
2023/03/22 07:04:03;;;;;;;13.53;8.33;;;12.30;56.20;;;;;;5049966;28;20386;-71
2023/03/22 07:06:31;;;;;;;18.30;8.30;;;12.40;56.30;;;;;;5065874;28;20412;-73
2023/03/22 07:08:56;;;;;;;16.17;8.27;;;12.20;57.20;;;;;;5050872;28;20514;-73
2023/03/22 07:11:22;;;;;;;11.93;7.90;;;12.30;56.10;;;;;;5050710;28;20889;-72
2023/03/22 07:13:47;;;;;;;22.57;7.93;;;12.30;56.50;;;;;;5051497;28;20378;-74
2023/03/22 07:16:13;;;;;;;16.77;7.70;;;12.50;55.40;;;;;;5051223;28;20385;-72
2023/03/22 07:18:39;;;;;;;17.67;7.60;;;12.50;53.10;;;;;;5054814;28;20393;-73
2023/03/22 07:21:04;;;;;;;19.38;6.40;;;12.80;52.10;;;;;;5055298;28;20389;-72
2023/03/22 07:23:30;;;;;;;16.20;6.40;;;12.80;51.20;;;;;;5057285;28;20789;-73
2023/03/22 07:25:58;;;;;;;13.35;6.60;;;12.90;50.60;;;;;;5062216;28;20419;-73
2023/03/22 07:28:23;;;;;;;16.92;6.40;;;13.40;45.00;;;;;;5056645;28;20800;-74
2023/03/22 07:30:57;;;;;;;15.07;5.90;;;13.60;43.60;;;;;;5054510;28;20446;-75
2023/03/22 07:33:23;;;;;;;13.40;5.20;;;13.60;42.70;;;;;;5055942;28;20386;-73
2023/03/22 07:35:49;;;;;;;13.57;5.72;;;13.90;39.50;;;;;;5054870;28;20908;-74
2023/03/22 07:38:14;;;;;;;11.10;5.07;;;13.90;39.50;;;;;;5054394;28;20941;-72
2023/03/22 07:40:40;;;;;;;16.85;5.90;;;13.90;39.90;;;;;;5051357;28;20447;-74
2023/03/22 07:43:05;;;;;;;12.57;5.30;;;13.90;39.50;;;;;;5050833;28;20377;-72
2023/03/22 07:45:31;;;;;;;12.83;5.27;;;13.90;39.30;;;;;;5066154;28;20447;-73
2023/03/22 07:47:56;;;;;;;16.90;5.40;;;14.00;38.40;;;;;;5050657;28;20929;-74
2023/03/22 07:50:22;;;;;;;13.25;5.60;;;13.90;39.10;;;;;;5067017;28;20436;-73
2023/03/22 07:52:47;;;;;;;11.57;5.30;;;13.90;39.20;;;;;;5052477;28;20425;-74
2023/03/22 07:55:13;;;;;;;11.60;5.70;;;13.90;39.70;;;;;;5051712;28;20373;-74
2023/03/22 07:57:39;;;;;;;11.70;5.50;;;13.70;39.70;;;;;;5051612;28;20822;-73
2023/03/22 08:00:08;;;;;;;10.75;4.82;;;13.40;42.00;;;;;;5051557;28;20435;-72
2023/03/22 08:02:33;;;;;;;13.07;4.73;;;13.40;41.80;;;;;;5052075;28;20389;-73
2023/03/22 08:04:59;;;;;;;17.10;4.90;;;13.50;40.10;;;;;;5051907;28;20382;-72
2023/03/22 08:07:25;;;;;;;12.90;4.27;;;13.70;39.40;;;;;;5050240;28;20409;-72
2023/03/22 08:09:50;;;;;;;13.00;3.90;;;13.70;37.90;;;;;;5049944;28;20505;-72
2023/03/22 08:12:17;;;;;;;10.63;3.80;;;13.60;38.70;;;;;;5051198;28;20389;-73
2023/03/22 08:14:46;;;;;;;11.52;3.90;;;13.70;38.30;;;;;;5050582;28;20389;-74
2023/03/22 08:17:12;;;;;;;9.73;3.80;;;13.80;37.60;;;;;;5051428;28;20377;-75
2023/03/22 08:19:38;;;;;;;11.45;3.95;;;13.90;36.60;;;;;;5051866;28;20408;-74
2023/03/22 08:22:05;;;;;;;7.10;2.60;;;13.90;36.50;;;;;;5050504;28;20397;-72
2023/03/22 08:24:31;;;;;;;5.05;2.30;;;13.90;34.70;;;;;;5066735;28;20389;-73
2023/03/22 08:26:56;;;;;;;7.40;2.50;;;13.80;34.30;;;;;;5051662;28;20386;-74
2023/03/22 08:29:22;;;;;;;7.23;2.00;;;14.00;32.50;;;;;;5051565;28;20405;-72
2023/03/22 08:31:48;;;;;;;9.70;2.40;;;13.90;31.90;;;;;;5050118;28;20390;-75
2023/03/22 08:34:14;;;;;;;10.37;1.90;;;13.80;32.30;;;;;;5051356;28;20392;-73
2023/03/22 08:36:40;;;;;;;8.83;1.80;;;13.80;32.10;;;;;;5054640;28;20456;-73
2023/03/22 08:39:07;;;;;;;8.48;1.70;;;13.70;32.50;;;;;;5054311;28;20946;-72
2023/03/22 08:41:33;;;;;;;7.28;2.17;;;13.80;32.10;;;;;;5053805;28;20405;-73
2023/03/22 08:43:58;;;;;;;6.82;1.80;;;13.90;32.40;;;;;;5054113;28;20390;-72
2023/03/22 08:46:24;;;;;;;4.90;2.10;;;13.90;32.20;;;;;;5054195;28;20766;-75
2023/03/22 08:48:49;;;;;;;5.68;2.17;;;14.00;31.50;;;;;;5054565;28;20734;-72
2023/03/22 08:51:22;;;;;;;9.50;2.90;;;13.80;32.10;;;;;;5053941;28;20421;-74
2023/03/22 08:53:48;;;;;;;12.38;2.20;;;13.90;32.40;;;;;;5053894;28;20874;-73
2023/03/22 08:56:15;;;;;;;9.98;2.25;;;14.10;31.80;;;;;;5054236;28;20385;-73
2023/03/22 08:58:45;;;;;;;10.15;2.40;;;14.40;30.40;;;;;;5053980;28;20386;-73
2023/03/22 09:01:15;;;;;;;5.60;2.70;;;14.70;29.20;;;;;;5054390;28;20747;-74
2023/03/22 09:03:41;;;;;;;9.82;2.10;;;14.70;28.30;;;;;;5054138;28;21189;-72
2023/03/22 09:06:08;;;;;;;7.95;2.20;;;14.80;27.50;;;;;;5054267;28;20390;-73
2023/03/22 09:08:34;;;;;;;8.60;1.90;;;15.10;26.70;;;;;;5054926;28;20397;-73
2023/03/22 09:11:00;;;;;;;6.75;2.40;;;15.20;25.50;;;;;;5056238;28;20385;-73
2023/03/22 09:13:25;;;;;;;5.50;1.90;;;15.40;24.90;;;;;;5054273;28;20417;-73
2023/03/22 09:15:51;;;;;;;4.60;2.42;;;15.20;23.50;;;;;;5054030;28;20888;-73
2023/03/22 09:18:18;;;;;;;5.25;1.85;;;15.20;23.20;;;;;;5053903;28;20405;-72
2023/03/22 09:20:44;;;;;;;4.40;1.80;;;15.20;24.00;;;;;;5053574;28;20801;-73
2023/03/22 09:23:11;;;;;;;5.50;1.77;;;15.20;22.30;;;;;;5053235;28;20443;-73
2023/03/22 09:25:37;;;;;;;5.60;2.20;;;15.20;22.60;;;;;;5052922;28;20402;-75
2023/03/22 09:28:03;;;;;;;5.60;2.10;;;15.30;23.30;;;;;;5052962;28;20384;-73
2023/03/22 09:30:29;;;;;;;6.07;2.22;;;15.40;22.50;;;;;;5052650;28;20886;-73
2023/03/22 09:32:54;;;;;;;5.97;2.03;;;15.50;22.30;;;;;;5053487;28;20385;-74
2023/03/22 09:35:20;;;;;;;7.53;2.17;;;15.30;22.80;;;;;;5054168;28;20803;-74
2023/03/22 09:37:48;;;;;;;9.70;2.10;;;15.20;22.60;;;;;;5053185;28;20389;-73
2023/03/22 09:40:14;;;;;;;10.45;2.47;;;14.90;22.80;;;;;;5053088;28;20389;-74
2023/03/22 09:42:44;;;;;;;7.70;1.90;;;14.80;23.30;;;;;;5052930;28;20385;-74
2023/03/22 09:45:19;;;;;;;9.75;2.20;;;14.80;24.00;;;;;;5053605;28;20397;-74
2023/03/22 09:47:48;;;;;;;8.80;2.30;;;14.80;24.70;;;;;;5053415;28;20381;-73
2023/03/22 09:50:19;;;;;;;7.38;2.10;;;14.60;25.20;;;;;;5052052;28;20400;-76
2023/03/22 09:52:44;;;;;;;6.22;2.83;;;14.70;24.80;;;;;;5052697;28;20423;-73
2023/03/22 09:55:17;;;;;;;6.73;2.30;;;15.00;24.00;;;;;;5052617;28;20969;-73
2023/03/22 09:57:46;;;;;;;8.48;2.40;;;15.20;23.40;;;;;;5052261;28;20465;-73
2023/03/22 10:00:21;;;;;;;9.25;2.50;;;15.30;22.80;;;;;;5052654;28;20393;-75
2023/03/22 10:03:04;;;;;;;7.45;2.55;;;15.30;22.40;;;;;;5052150;28;20378;-74
2023/03/22 10:05:51;;;;;;;9.80;2.20;;;15.30;22.80;;;;;;5052129;28;20425;-74
2023/03/22 10:08:25;;;;;;;9.70;2.30;;;15.60;22.10;;;;;;5051854;28;20729;-73
2023/03/22 10:10:51;;;;;;;6.90;2.50;;;15.80;21.40;;;;;;5051624;28;20492;-74
2023/03/22 10:13:34;;;;;;;5.43;1.97;;;16.10;20.60;;;;;;5051805;28;20377;-74
2023/03/22 10:16:03;;;;;;;8.15;2.22;;;16.30;20.00;;;;;;5050674;28;20378;-73
2023/03/22 10:18:36;;;;;;;7.88;2.17;;;16.10;20.90;;;;;;5052419;28;20391;-72
2023/03/22 10:21:07;;;;;;;7.63;2.40;;;16.10;20.80;;;;;;5052014;28;20413;-73
2023/03/22 10:23:42;;;;;;;9.43;2.22;;;16.40;19.70;;;;;;5052259;28;20408;-73
2023/03/22 10:26:17;;;;;;;6.78;2.05;;;16.20;19.80;;;;;;5051939;28;20370;-74
2023/03/22 10:28:45;;;;;;;8.35;2.00;;;16.30;19.80;;;;;;5052372;28;20412;-74
2023/03/22 10:31:14;;;;;;;8.20;2.10;;;16.40;19.20;;;;;;5053464;28;20459;-75
2023/03/22 10:33:56;;;;;;;5.82;2.40;;;16.40;19.40;;;;;;5052090;28;20724;-74
2023/03/22 10:36:26;;;;;;;6.22;1.95;;;16.60;19.20;;;;;;5052326;28;20377;-73
2023/03/22 10:38:59;;;;;;;7.28;2.00;;;16.80;18.50;;;;;;5051521;28;20382;-73
2023/03/22 10:41:27;;;;;;;6.80;2.30;;;16.90;18.40;;;;;;5051721;28;20400;-74
2023/03/22 10:43:57;;;;;;;8.38;2.00;;;16.60;18.60;;;;;;5052069;28;20700;-73
2023/03/22 10:46:32;;;;;;;7.50;2.08;;;16.30;19.10;;;;;;5052294;28;20385;-74
2023/03/22 10:48:59;;;;;;;6.95;1.70;;;16.10;19.50;;;;;;5052743;28;20397;-74
2023/03/22 10:52:00;;;;;;;8.90;2.13;;;15.70;19.90;;;;;;5052550;28;20540;-73
2023/03/22 10:54:26;;;;;;;8.55;2.58;;;15.60;20.70;;;;;;5037983;28;20399;-74
2023/03/22 10:56:52;;;;;;;5.60;2.15;;;15.60;21.40;;;;;;5053917;28;20385;-73
2023/03/22 10:59:42;;;;;;;6.30;2.60;;;15.70;20.90;;;;;;5052091;28;20385;-74
2023/03/22 11:02:27;;;;;;;7.47;1.98;;;15.90;21.10;;;;;;5055024;28;20385;-73
2023/03/22 11:04:56;;;;;;;7.25;2.20;;;16.10;20.80;;;;;;5053079;28;20417;-74
2023/03/22 11:07:36;;;;;;;7.93;2.40;;;16.00;19.80;;;;;;5055188;28;20386;-73
2023/03/22 11:10:08;;;;;;;8.20;2.13;;;16.00;20.00;;;;;;5055706;28;20435;-74
2023/03/22 11:12:46;;;;;;;6.80;2.00;;;16.00;19.90;;;;;;5056656;28;20385;-73
2023/03/22 11:15:27;;;;;;;11.10;2.00;;;16.00;19.70;;;;;;5056100;28;20377;-73
2023/03/22 11:18:14;;;;;;;6.70;2.80;;;16.00;19.90;;;;;;5055081;28;20388;-73
2023/03/22 11:20:50;;;;;;;7.13;2.30;;;16.20;19.40;;;;;;5057346;28;20386;-73
2023/03/22 11:23:16;;;;;;;6.20;2.20;;;15.90;19.80;;;;;;5058261;28;20757;-73
2023/03/22 11:25:47;;;;;;;5.75;2.00;;;15.60;20.00;;;;;;5055125;28;20791;-74
2023/03/22 11:28:19;;;;;;;6.28;1.83;;;15.50;20.30;;;;;;5054227;28;20482;-73
2023/03/22 11:31:02;;;;;;;7.17;2.17;;;15.20;21.10;;;;;;5053217;28;20447;-73
2023/03/22 11:33:28;;;;;;;11.95;2.60;;;15.20;21.60;;;;;;5051195;28;20389;-72
2023/03/22 11:35:56;;;;;;;6.03;2.17;;;15.30;21.30;;;;;;5050837;28;20439;-73
2023/03/22 11:38:39;;;;;;;5.57;2.20;;;15.40;21.10;;;;;;5050847;28;20813;-73
2023/03/22 11:41:20;;;;;;;5.90;2.20;;;15.30;21.50;;;;;;5065781;28;20389;-74
2023/03/22 11:43:50;;;;;;;6.28;1.92;;;15.20;21.10;;;;;;5050751;28;20393;-73
2023/03/22 11:46:20;;;;;;;5.05;2.22;;;15.20;21.30;;;;;;5050437;28;20392;-73
2023/03/22 11:48:49;;;;;;;4.40;1.92;;;15.30;21.40;;;;;;5050268;28;20401;-73
2023/03/22 11:51:24;;;;;;;9.95;2.40;;;15.40;21.80;;;;;;5050568;28;20385;-73
2023/03/22 11:53:55;;;;;;;6.68;2.00;;;15.50;21.00;;;;;;5050710;28;20362;-73
2023/03/22 11:56:27;;;;;;;3.80;1.70;;;15.50;20.10;;;;;;5050687;28;20427;-73
2023/03/22 11:59:05;;;;;;;6.85;2.17;;;15.60;20.00;;;;;;5052646;28;20468;-74
2023/03/22 12:01:39;;;;;;;8.18;1.90;;;15.60;20.20;;;;;;5050853;28;20381;-73
2023/03/22 12:04:12;;;;;;;6.65;1.95;;;15.30;20.70;;;;;;5051009;28;20898;-74
2023/03/22 12:06:39;;;;;;;11.27;2.17;;;15.20;20.60;;;;;;5050827;28;20451;-72
2023/03/22 12:09:17;;;;;;;8.70;2.10;;;15.30;20.70;;;;;;5053895;28;20397;-74
2023/03/22 12:11:47;;;;;;;4.65;1.98;;;15.50;20.30;;;;;;5054654;28;20439;-73
2023/03/22 12:14:20;;;;;;;11.00;2.20;;;15.60;19.80;;;;;;5054434;28;20377;-75
2023/03/22 12:16:50;;;;;;;8.60;1.95;;;15.70;19.90;;;;;;5057680;28;20420;-73
2023/03/22 12:19:57;;;;;;;6.10;2.40;;;15.70;19.70;;;;;;5054214;28;20389;-73
2023/03/22 12:22:32;;;;;;;5.50;2.27;;;15.70;19.60;;;;;;5055428;28;20487;-74
2023/03/22 12:25:00;;;;;;;7.80;2.10;;;15.70;19.60;;;;;;5062054;28;20385;-75
2023/03/22 12:27:29;;;;;;;5.90;1.80;;;15.70;19.10;;;;;;5061758;28;20381;-73
2023/03/22 12:30:11;;;;;;;7.13;2.40;;;15.60;19.40;;;;;;5074942;28;20394;-74
2023/03/22 12:32:43;;;;;;;5.95;1.88;;;15.70;20.10;;;;;;5057333;28;20388;-73
2023/03/22 12:35:20;;;;;;;5.53;2.00;;;15.70;20.70;;;;;;5059813;28;20431;-73
2023/03/22 12:37:50;;;;;;;3.20;1.70;;;15.60;20.50;;;;;;5057094;28;20728;-74
2023/03/22 12:40:27;;;;;;;6.57;1.77;;;15.60;20.30;;;;;;5055023;28;20382;-75
2023/03/22 12:43:11;;;;;;;7.47;2.17;;;15.50;21.10;;;;;;5053381;28;20405;-73
2023/03/22 12:45:41;;;;;;;9.98;2.17;;;15.30;21.00;;;;;;5053985;28;20385;-74
2023/03/22 12:48:18;;;;;;;5.47;2.10;;;15.20;22.10;;;;;;5053290;28;20389;-73
2023/03/22 12:50:54;;;;;;;5.38;2.17;;;14.90;22.60;;;;;;5053315;28;20801;-75